sensor_id;sensor_type;location;lat;lon;timestamp;P1;durP1;ratioP1;P2;durP2;ratioP2
11659;SDS011;5886;58.356;12.744;2022-08-01T00:01:39;5.10;;;3.20;;
11659;SDS011;5886;58.356;12.744;2022-08-01T00:04:05;4.85;;;3.05;;
11659;SDS011;5886;58.356;12.744;2022-08-01T00:06:31;5.85;;;3.10;;
11659;SDS011;5886;58.356;12.744;2022-08-01T00:08:57;4.10;;;3.58;;
11659;SDS011;5886;58.356;12.744;2022-08-01T00:11:23;6.28;;;3.50;;
11659;SDS011;5886;58.356;12.744;2022-08-01T00:13:49;7.05;;;3.22;;
11659;SDS011;5886;58.356;12.744;2022-08-01T00:16:15;3.72;;;2.90;;
11659;SDS011;5886;58.356;12.744;2022-08-01T00:18:41;3.88;;;2.92;;
11659;SDS011;5886;58.356;12.744;2022-08-01T00:21:07;4.22;;;3.05;;
11659;SDS011;5886;58.356;12.744;2022-08-01T00:23:33;9.00;;;3.20;;
11659;SDS011;5886;58.356;12.744;2022-08-01T00:25:59;3.80;;;3.17;;
11659;SDS011;5886;58.356;12.744;2022-08-01T00:28:25;3.65;;;3.08;;
11659;SDS011;5886;58.356;12.744;2022-08-01T00:30:51;3.80;;;3.33;;
11659;SDS011;5886;58.356;12.744;2022-08-01T00:33:16;5.50;;;3.40;;
11659;SDS011;5886;58.356;12.744;2022-08-01T00:35:43;5.25;;;3.03;;
11659;SDS011;5886;58.356;12.744;2022-08-01T00:38:08;5.13;;;2.97;;
11659;SDS011;5886;58.356;12.744;2022-08-01T00:40:35;5.15;;;2.92;;
11659;SDS011;5886;58.356;12.744;2022-08-01T00:43:02;6.25;;;2.83;;
11659;SDS011;5886;58.356;12.744;2022-08-01T00:45:28;5.05;;;2.83;;
11659;SDS011;5886;58.356;12.744;2022-08-01T00:47:54;3.22;;;2.53;;
11659;SDS011;5886;58.356;12.744;2022-08-01T00:50:19;2.70;;;2.50;;
11659;SDS011;5886;58.356;12.744;2022-08-01T00:52:45;3.28;;;2.60;;
11659;SDS011;5886;58.356;12.744;2022-08-01T00:55:11;2.58;;;2.08;;
11659;SDS011;5886;58.356;12.744;2022-08-01T00:57:38;2.53;;;2.33;;
11659;SDS011;5886;58.356;12.744;2022-08-01T01:00:05;4.25;;;2.40;;
11659;SDS011;5886;58.356;12.744;2022-08-01T01:02:31;4.60;;;2.50;;
11659;SDS011;5886;58.356;12.744;2022-08-01T01:04:57;3.50;;;2.80;;
11659;SDS011;5886;58.356;12.744;2022-08-01T01:07:29;2.60;;;2.40;;
11659;SDS011;5886;58.356;12.744;2022-08-01T01:10:25;3.13;;;2.75;;
11659;SDS011;5886;58.356;12.744;2022-08-01T01:12:52;2.47;;;2.28;;
11659;SDS011;5886;58.356;12.744;2022-08-01T01:15:34;3.72;;;2.10;;
11659;SDS011;5886;58.356;12.744;2022-08-01T01:18:11;2.88;;;2.13;;
11659;SDS011;5886;58.356;12.744;2022-08-01T01:20:46;3.88;;;2.60;;
11659;SDS011;5886;58.356;12.744;2022-08-01T01:23:31;2.95;;;1.98;;
11659;SDS011;5886;58.356;12.744;2022-08-01T01:31:40;4.47;;;2.55;;
11659;SDS011;5886;58.356;12.744;2022-08-01T01:34:11;2.95;;;2.47;;
11659;SDS011;5886;58.356;12.744;2022-08-01T01:36:40;3.33;;;2.58;;
11659;SDS011;5886;58.356;12.744;2022-08-01T01:39:08;4.00;;;2.78;;
11659;SDS011;5886;58.356;12.744;2022-08-01T01:41:36;3.30;;;2.55;;
11659;SDS011;5886;58.356;12.744;2022-08-01T01:44:04;3.70;;;2.88;;
11659;SDS011;5886;58.356;12.744;2022-08-01T01:46:31;4.60;;;2.80;;
11659;SDS011;5886;58.356;12.744;2022-08-01T01:48:58;4.00;;;2.90;;
11659;SDS011;5886;58.356;12.744;2022-08-01T01:51:25;4.30;;;2.70;;
11659;SDS011;5886;58.356;12.744;2022-08-01T01:53:53;3.35;;;2.72;;
11659;SDS011;5886;58.356;12.744;2022-08-01T01:56:20;5.10;;;3.05;;
11659;SDS011;5886;58.356;12.744;2022-08-01T01:58:48;3.50;;;3.20;;
11659;SDS011;5886;58.356;12.744;2022-08-01T02:01:19;5.05;;;2.90;;
11659;SDS011;5886;58.356;12.744;2022-08-01T02:03:47;4.35;;;3.00;;
11659;SDS011;5886;58.356;12.744;2022-08-01T02:06:14;4.75;;;3.47;;
11659;SDS011;5886;58.356;12.744;2022-08-01T02:08:42;4.30;;;3.25;;
11659;SDS011;5886;58.356;12.744;2022-08-01T02:11:08;6.15;;;3.13;;
11659;SDS011;5886;58.356;12.744;2022-08-01T02:13:45;3.60;;;3.17;;
11659;SDS011;5886;58.356;12.744;2022-08-01T02:16:24;4.38;;;3.70;;
11659;SDS011;5886;58.356;12.744;2022-08-01T02:18:52;3.85;;;3.47;;
11659;SDS011;5886;58.356;12.744;2022-08-01T02:24:32;4.05;;;3.58;;
11659;SDS011;5886;58.356;12.744;2022-08-01T02:27:11;6.50;;;3.65;;
11659;SDS011;5886;58.356;12.744;2022-08-01T02:29:41;4.28;;;3.88;;
11659;SDS011;5886;58.356;12.744;2022-08-01T02:32:14;4.63;;;4.22;;
11659;SDS011;5886;58.356;12.744;2022-08-01T02:34:46;6.00;;;3.55;;
11659;SDS011;5886;58.356;12.744;2022-08-01T02:37:14;5.47;;;4.30;;
11659;SDS011;5886;58.356;12.744;2022-08-01T02:39:42;4.80;;;4.30;;
11659;SDS011;5886;58.356;12.744;2022-08-01T02:42:11;9.80;;;4.80;;
11659;SDS011;5886;58.356;12.744;2022-08-01T02:44:39;5.15;;;4.68;;
11659;SDS011;5886;58.356;12.744;2022-08-01T02:47:07;10.18;;;5.93;;
11659;SDS011;5886;58.356;12.744;2022-08-01T02:49:36;7.90;;;5.53;;
11659;SDS011;5886;58.356;12.744;2022-08-01T02:52:11;9.32;;;5.95;;
11659;SDS011;5886;58.356;12.744;2022-08-01T02:54:40;6.10;;;5.50;;
11659;SDS011;5886;58.356;12.744;2022-08-01T02:57:10;6.38;;;5.80;;
11659;SDS011;5886;58.356;12.744;2022-08-01T02:59:38;8.30;;;6.60;;
11659;SDS011;5886;58.356;12.744;2022-08-01T03:02:05;7.63;;;6.90;;
11659;SDS011;5886;58.356;12.744;2022-08-01T03:04:33;12.18;;;6.80;;
11659;SDS011;5886;58.356;12.744;2022-08-01T03:07:02;8.18;;;7.20;;
11659;SDS011;5886;58.356;12.744;2022-08-01T03:09:30;7.75;;;6.97;;
11659;SDS011;5886;58.356;12.744;2022-08-01T03:12:00;9.95;;;8.35;;
11659;SDS011;5886;58.356;12.744;2022-08-01T03:14:27;9.32;;;8.25;;
11659;SDS011;5886;58.356;12.744;2022-08-01T03:16:55;9.02;;;8.13;;
11659;SDS011;5886;58.356;12.744;2022-08-01T03:19:24;10.52;;;7.85;;
11659;SDS011;5886;58.356;12.744;2022-08-01T03:21:51;11.13;;;8.57;;
11659;SDS011;5886;58.356;12.744;2022-08-01T03:24:19;9.48;;;8.57;;
11659;SDS011;5886;58.356;12.744;2022-08-01T03:26:48;11.35;;;9.88;;
11659;SDS011;5886;58.356;12.744;2022-08-01T03:29:18;10.15;;;9.25;;
11659;SDS011;5886;58.356;12.744;2022-08-01T03:31:47;11.13;;;9.88;;
11659;SDS011;5886;58.356;12.744;2022-08-01T03:34:14;11.63;;;9.60;;
11659;SDS011;5886;58.356;12.744;2022-08-01T03:37:19;10.68;;;9.45;;
11659;SDS011;5886;58.356;12.744;2022-08-01T03:42:33;10.63;;;9.73;;
11659;SDS011;5886;58.356;12.744;2022-08-01T03:45:27;12.13;;;10.93;;
11659;SDS011;5886;58.356;12.744;2022-08-01T03:47:59;13.90;;;11.70;;
11659;SDS011;5886;58.356;12.744;2022-08-01T03:50:28;13.23;;;11.15;;
11659;SDS011;5886;58.356;12.744;2022-08-01T03:52:59;11.77;;;10.38;;
11659;SDS011;5886;58.356;12.744;2022-08-01T03:55:27;13.70;;;10.63;;
11659;SDS011;5886;58.356;12.744;2022-08-01T03:57:54;12.48;;;10.63;;
11659;SDS011;5886;58.356;12.744;2022-08-01T04:00:22;11.63;;;10.48;;
11659;SDS011;5886;58.356;12.744;2022-08-01T04:02:49;14.32;;;11.07;;
11659;SDS011;5886;58.356;12.744;2022-08-01T04:05:16;12.10;;;10.95;;
11659;SDS011;5886;58.356;12.744;2022-08-01T04:07:46;13.35;;;11.13;;
11659;SDS011;5886;58.356;12.744;2022-08-01T04:10:15;13.88;;;12.45;;
11659;SDS011;5886;58.356;12.744;2022-08-01T04:12:41;14.00;;;12.38;;
11659;SDS011;5886;58.356;12.744;2022-08-01T04:15:08;14.45;;;11.90;;
11659;SDS011;5886;58.356;12.744;2022-08-01T04:17:34;12.98;;;11.75;;
11659;SDS011;5886;58.356;12.744;2022-08-01T04:20:00;15.15;;;13.75;;
11659;SDS011;5886;58.356;12.744;2022-08-01T04:22:25;15.23;;;12.70;;
11659;SDS011;5886;58.356;12.744;2022-08-01T04:24:53;13.60;;;12.30;;
11659;SDS011;5886;58.356;12.744;2022-08-01T04:27:23;13.80;;;12.48;;
11659;SDS011;5886;58.356;12.744;2022-08-01T04:29:56;15.02;;;13.38;;
11659;SDS011;5886;58.356;12.744;2022-08-01T04:32:24;15.23;;;13.48;;
11659;SDS011;5886;58.356;12.744;2022-08-01T04:34:53;15.55;;;14.05;;
11659;SDS011;5886;58.356;12.744;2022-08-01T04:37:22;14.73;;;13.30;;
11659;SDS011;5886;58.356;12.744;2022-08-01T04:39:50;15.35;;;13.88;;
11659;SDS011;5886;58.356;12.744;2022-08-01T04:42:18;15.52;;;13.57;;
11659;SDS011;5886;58.356;12.744;2022-08-01T04:44:44;14.55;;;13.15;;
11659;SDS011;5886;58.356;12.744;2022-08-01T04:47:10;15.63;;;14.02;;
11659;SDS011;5886;58.356;12.744;2022-08-01T04:49:38;20.50;;;14.30;;
11659;SDS011;5886;58.356;12.744;2022-08-01T04:52:05;16.90;;;14.57;;
11659;SDS011;5886;58.356;12.744;2022-08-01T04:54:33;16.05;;;14.57;;
11659;SDS011;5886;58.356;12.744;2022-08-01T04:57:02;16.17;;;14.57;;
11659;SDS011;5886;58.356;12.744;2022-08-01T04:59:32;16.70;;;15.10;;
11659;SDS011;5886;58.356;12.744;2022-08-01T05:02:09;15.18;;;13.57;;
11659;SDS011;5886;58.356;12.744;2022-08-01T05:04:40;15.63;;;13.80;;
11659;SDS011;5886;58.356;12.744;2022-08-01T05:07:07;14.57;;;13.18;;
11659;SDS011;5886;58.356;12.744;2022-08-01T05:09:33;14.25;;;12.70;;
11659;SDS011;5886;58.356;12.744;2022-08-01T05:12:01;15.15;;;13.65;;
11659;SDS011;5886;58.356;12.744;2022-08-01T05:14:29;14.25;;;13.05;;
11659;SDS011;5886;58.356;12.744;2022-08-01T05:16:57;14.48;;;13.07;;
11659;SDS011;5886;58.356;12.744;2022-08-01T05:19:25;14.57;;;13.18;;
11659;SDS011;5886;58.356;12.744;2022-08-01T05:21:51;14.23;;;12.98;;
11659;SDS011;5886;58.356;12.744;2022-08-01T05:24:17;15.52;;;14.00;;
11659;SDS011;5886;58.356;12.744;2022-08-01T05:26:43;14.10;;;12.70;;
11659;SDS011;5886;58.356;12.744;2022-08-01T05:29:09;13.10;;;11.93;;
11659;SDS011;5886;58.356;12.744;2022-08-01T05:31:35;12.27;;;11.15;;
11659;SDS011;5886;58.356;12.744;2022-08-01T05:34:01;11.07;;;10.18;;
11659;SDS011;5886;58.356;12.744;2022-08-01T05:36:28;11.82;;;10.73;;
11659;SDS011;5886;58.356;12.744;2022-08-01T05:38:54;11.23;;;10.18;;
11659;SDS011;5886;58.356;12.744;2022-08-01T05:41:20;10.60;;;9.70;;
11659;SDS011;5886;58.356;12.744;2022-08-01T05:43:46;12.32;;;11.13;;
11659;SDS011;5886;58.356;12.744;2022-08-01T05:46:12;10.30;;;9.30;;
11659;SDS011;5886;58.356;12.744;2022-08-01T05:48:38;9.95;;;9.10;;
11659;SDS011;5886;58.356;12.744;2022-08-01T05:51:04;10.18;;;9.35;;
11659;SDS011;5886;58.356;12.744;2022-08-01T05:53:30;9.82;;;8.98;;
11659;SDS011;5886;58.356;12.744;2022-08-01T05:55:56;10.73;;;9.82;;
11659;SDS011;5886;58.356;12.744;2022-08-01T05:58:22;10.65;;;9.70;;
11659;SDS011;5886;58.356;12.744;2022-08-01T06:00:48;11.45;;;10.32;;
11659;SDS011;5886;58.356;12.744;2022-08-01T06:03:14;11.07;;;10.07;;
11659;SDS011;5886;58.356;12.744;2022-08-01T06:05:40;11.00;;;10.15;;
11659;SDS011;5886;58.356;12.744;2022-08-01T06:08:06;11.18;;;10.18;;
11659;SDS011;5886;58.356;12.744;2022-08-01T06:10:31;11.20;;;10.20;;
11659;SDS011;5886;58.356;12.744;2022-08-01T06:12:57;12.13;;;11.02;;
11659;SDS011;5886;58.356;12.744;2022-08-01T06:15:24;12.60;;;11.50;;
11659;SDS011;5886;58.356;12.744;2022-08-01T06:17:50;12.63;;;11.52;;
11659;SDS011;5886;58.356;12.744;2022-08-01T06:20:16;14.02;;;12.43;;
11659;SDS011;5886;58.356;12.744;2022-08-01T06:22:42;14.13;;;11.90;;
11659;SDS011;5886;58.356;12.744;2022-08-01T06:25:08;12.68;;;11.57;;
11659;SDS011;5886;58.356;12.744;2022-08-01T06:27:49;13.13;;;11.68;;
11659;SDS011;5886;58.356;12.744;2022-08-01T06:30:33;13.00;;;11.80;;
11659;SDS011;5886;58.356;12.744;2022-08-01T06:32:59;10.45;;;9.52;;
11659;SDS011;5886;58.356;12.744;2022-08-01T06:35:28;10.07;;;8.75;;
11659;SDS011;5886;58.356;12.744;2022-08-01T06:37:55;9.50;;;8.60;;
11659;SDS011;5886;58.356;12.744;2022-08-01T06:40:22;9.70;;;8.68;;
11659;SDS011;5886;58.356;12.744;2022-08-01T06:42:48;8.40;;;7.68;;
11659;SDS011;5886;58.356;12.744;2022-08-01T06:45:14;7.00;;;6.25;;
11659;SDS011;5886;58.356;12.744;2022-08-01T06:47:42;7.30;;;6.65;;
11659;SDS011;5886;58.356;12.744;2022-08-01T06:50:10;7.45;;;6.10;;
11659;SDS011;5886;58.356;12.744;2022-08-01T06:52:36;7.55;;;5.45;;
11659;SDS011;5886;58.356;12.744;2022-08-01T06:55:03;5.68;;;5.18;;
11659;SDS011;5886;58.356;12.744;2022-08-01T06:57:29;5.90;;;5.30;;
11659;SDS011;5886;58.356;12.744;2022-08-01T06:59:55;5.78;;;5.00;;
11659;SDS011;5886;58.356;12.744;2022-08-01T07:02:22;5.55;;;4.85;;
11659;SDS011;5886;58.356;12.744;2022-08-01T07:04:48;6.32;;;5.72;;
11659;SDS011;5886;58.356;12.744;2022-08-01T07:07:14;5.32;;;4.82;;
11659;SDS011;5886;58.356;12.744;2022-08-01T07:09:40;6.18;;;5.68;;
11659;SDS011;5886;58.356;12.744;2022-08-01T07:12:07;6.55;;;5.95;;
11659;SDS011;5886;58.356;12.744;2022-08-01T07:14:34;6.20;;;4.97;;
11659;SDS011;5886;58.356;12.744;2022-08-01T07:20:29;4.45;;;4.05;;
11659;SDS011;5886;58.356;12.744;2022-08-01T07:22:58;4.88;;;4.25;;
11659;SDS011;5886;58.356;12.744;2022-08-01T07:25:24;5.05;;;3.90;;
11659;SDS011;5886;58.356;12.744;2022-08-01T07:27:52;4.10;;;3.80;;
11659;SDS011;5886;58.356;12.744;2022-08-01T07:30:18;3.50;;;3.30;;
11659;SDS011;5886;58.356;12.744;2022-08-01T07:32:44;3.95;;;3.53;;
11659;SDS011;5886;58.356;12.744;2022-08-01T07:35:11;3.95;;;3.47;;
11659;SDS011;5886;58.356;12.744;2022-08-01T07:37:36;3.30;;;3.00;;
11659;SDS011;5886;58.356;12.744;2022-08-01T07:40:04;3.55;;;3.20;;
11659;SDS011;5886;58.356;12.744;2022-08-01T07:42:30;4.38;;;3.40;;
11659;SDS011;5886;58.356;12.744;2022-08-01T07:44:57;3.03;;;2.83;;
11659;SDS011;5886;58.356;12.744;2022-08-01T07:47:26;5.43;;;3.13;;
11659;SDS011;5886;58.356;12.744;2022-08-01T07:49:58;3.08;;;2.80;;
11659;SDS011;5886;58.356;12.744;2022-08-01T07:52:25;2.40;;;2.30;;
11659;SDS011;5886;58.356;12.744;2022-08-01T07:54:52;2.75;;;2.55;;
11659;SDS011;5886;58.356;12.744;2022-08-01T07:57:18;2.15;;;2.05;;
11659;SDS011;5886;58.356;12.744;2022-08-01T07:59:44;3.35;;;2.42;;
11659;SDS011;5886;58.356;12.744;2022-08-01T08:02:10;2.90;;;2.55;;
11659;SDS011;5886;58.356;12.744;2022-08-01T08:04:36;3.55;;;2.60;;
11659;SDS011;5886;58.356;12.744;2022-08-01T08:07:08;2.13;;;1.95;;
11659;SDS011;5886;58.356;12.744;2022-08-01T08:09:34;5.70;;;2.58;;
11659;SDS011;5886;58.356;12.744;2022-08-01T08:11:59;1.75;;;1.65;;
11659;SDS011;5886;58.356;12.744;2022-08-01T08:14:25;1.80;;;1.70;;
11659;SDS011;5886;58.356;12.744;2022-08-01T08:16:51;2.50;;;1.80;;
11659;SDS011;5886;58.356;12.744;2022-08-01T08:19:17;2.38;;;1.60;;
11659;SDS011;5886;58.356;12.744;2022-08-01T08:21:43;1.67;;;1.58;;
11659;SDS011;5886;58.356;12.744;2022-08-01T08:24:09;2.25;;;1.60;;
11659;SDS011;5886;58.356;12.744;2022-08-01T08:26:48;2.10;;;1.90;;
11659;SDS011;5886;58.356;12.744;2022-08-01T08:29:16;1.85;;;1.75;;
11659;SDS011;5886;58.356;12.744;2022-08-01T08:31:42;1.90;;;1.80;;
11659;SDS011;5886;58.356;12.744;2022-08-01T08:34:08;3.50;;;1.73;;
11659;SDS011;5886;58.356;12.744;2022-08-01T08:36:34;1.50;;;1.40;;
11659;SDS011;5886;58.356;12.744;2022-08-01T08:39:06;2.78;;;1.70;;
11659;SDS011;5886;58.356;12.744;2022-08-01T08:44:12;2.35;;;1.63;;
11659;SDS011;5886;58.356;12.744;2022-08-01T08:46:41;1.83;;;1.70;;
11659;SDS011;5886;58.356;12.744;2022-08-01T08:49:12;1.90;;;1.70;;
11659;SDS011;5886;58.356;12.744;2022-08-01T08:51:43;2.78;;;2.10;;
11659;SDS011;5886;58.356;12.744;2022-08-01T08:54:12;3.58;;;1.70;;
11659;SDS011;5886;58.356;12.744;2022-08-01T08:56:38;1.92;;;1.70;;
11659;SDS011;5886;58.356;12.744;2022-08-01T08:59:05;1.92;;;1.60;;
11659;SDS011;5886;58.356;12.744;2022-08-01T09:01:31;3.03;;;1.70;;
11659;SDS011;5886;58.356;12.744;2022-08-01T09:03:58;2.22;;;1.50;;
11659;SDS011;5886;58.356;12.744;2022-08-01T09:06:24;2.08;;;1.70;;
11659;SDS011;5886;58.356;12.744;2022-08-01T09:08:50;2.28;;;1.60;;
11659;SDS011;5886;58.356;12.744;2022-08-01T09:11:16;2.75;;;1.60;;
11659;SDS011;5886;58.356;12.744;2022-08-01T09:13:48;2.40;;;1.70;;
11659;SDS011;5886;58.356;12.744;2022-08-01T09:17:06;1.80;;;1.70;;
11659;SDS011;5886;58.356;12.744;2022-08-01T09:22:09;1.70;;;1.60;;
11659;SDS011;5886;58.356;12.744;2022-08-01T09:24:37;2.10;;;1.92;;
11659;SDS011;5886;58.356;12.744;2022-08-01T09:27:15;1.90;;;1.75;;
11659;SDS011;5886;58.356;12.744;2022-08-01T09:29:45;2.65;;;2.05;;
11659;SDS011;5886;58.356;12.744;2022-08-01T09:32:11;2.25;;;1.80;;
11659;SDS011;5886;58.356;12.744;2022-08-01T09:34:37;2.80;;;1.67;;
11659;SDS011;5886;58.356;12.744;2022-08-01T09:37:03;4.10;;;1.88;;
11659;SDS011;5886;58.356;12.744;2022-08-01T09:39:37;2.17;;;1.60;;
11659;SDS011;5886;58.356;12.744;2022-08-01T09:42:28;3.78;;;1.63;;
11659;SDS011;5886;58.356;12.744;2022-08-01T09:44:53;2.85;;;1.70;;
11659;SDS011;5886;58.356;12.744;2022-08-01T09:47:20;2.10;;;1.90;;
11659;SDS011;5886;58.356;12.744;2022-08-01T09:49:53;3.55;;;1.73;;
11659;SDS011;5886;58.356;12.744;2022-08-01T09:52:23;2.08;;;1.83;;
11659;SDS011;5886;58.356;12.744;2022-08-01T09:54:56;2.25;;;1.65;;
11659;SDS011;5886;58.356;12.744;2022-08-01T10:07:05;3.00;;;1.70;;
11659;SDS011;5886;58.356;12.744;2022-08-01T10:09:38;2.42;;;2.05;;
11659;SDS011;5886;58.356;12.744;2022-08-01T10:12:14;2.47;;;1.77;;
11659;SDS011;5886;58.356;12.744;2022-08-01T10:14:46;2.40;;;1.60;;
11659;SDS011;5886;58.356;12.744;2022-08-01T10:17:20;1.95;;;1.60;;
11659;SDS011;5886;58.356;12.744;2022-08-01T10:19:58;1.60;;;1.50;;
11659;SDS011;5886;58.356;12.744;2022-08-01T10:22:47;3.33;;;2.00;;
11659;SDS011;5886;58.356;12.744;2022-08-01T10:25:33;2.28;;;1.58;;
11659;SDS011;5886;58.356;12.744;2022-08-01T10:28:02;2.10;;;1.90;;
11659;SDS011;5886;58.356;12.744;2022-08-01T10:30:34;1.52;;;1.42;;
11659;SDS011;5886;58.356;12.744;2022-08-01T10:33:01;2.22;;;1.50;;
11659;SDS011;5886;58.356;12.744;2022-08-01T10:35:27;3.25;;;1.80;;
11659;SDS011;5886;58.356;12.744;2022-08-01T10:37:54;2.63;;;1.70;;
11659;SDS011;5886;58.356;12.744;2022-08-01T10:40:23;2.47;;;1.73;;
11659;SDS011;5886;58.356;12.744;2022-08-01T10:42:49;1.95;;;1.60;;
11659;SDS011;5886;58.356;12.744;2022-08-01T10:45:16;3.05;;;1.70;;
11659;SDS011;5886;58.356;12.744;2022-08-01T10:50:44;2.28;;;1.60;;
11659;SDS011;5886;58.356;12.744;2022-08-01T10:58:30;2.90;;;1.55;;
11659;SDS011;5886;58.356;12.744;2022-08-01T11:04:01;1.77;;;1.40;;
11659;SDS011;5886;58.356;12.744;2022-08-01T11:09:21;3.50;;;1.90;;
11659;SDS011;5886;58.356;12.744;2022-08-01T11:14:23;2.17;;;1.70;;
11659;SDS011;5886;58.356;12.744;2022-08-01T11:16:49;2.85;;;1.80;;
11659;SDS011;5886;58.356;12.744;2022-08-01T11:19:15;1.95;;;1.60;;
11659;SDS011;5886;58.356;12.744;2022-08-01T11:27:18;1.70;;;1.40;;
11659;SDS011;5886;58.356;12.744;2022-08-01T11:32:45;1.80;;;1.63;;
11659;SDS011;5886;58.356;12.744;2022-08-01T11:35:13;1.33;;;1.20;;
11659;SDS011;5886;58.356;12.744;2022-08-01T11:37:40;4.22;;;1.75;;
11659;SDS011;5886;58.356;12.744;2022-08-01T11:45:47;2.13;;;1.33;;
11659;SDS011;5886;58.356;12.744;2022-08-01T11:48:20;1.58;;;1.40;;
11659;SDS011;5886;58.356;12.744;2022-08-01T11:50:47;1.85;;;1.55;;
11659;SDS011;5886;58.356;12.744;2022-08-01T11:53:16;2.90;;;1.42;;
11659;SDS011;5886;58.356;12.744;2022-08-01T11:55:47;3.40;;;1.30;;
11659;SDS011;5886;58.356;12.744;2022-08-01T11:58:15;1.80;;;1.45;;
11659;SDS011;5886;58.356;12.744;2022-08-01T12:00:52;2.83;;;1.50;;
11659;SDS011;5886;58.356;12.744;2022-08-01T12:03:29;2.92;;;1.45;;
11659;SDS011;5886;58.356;12.744;2022-08-01T12:05:57;2.65;;;1.48;;
11659;SDS011;5886;58.356;12.744;2022-08-01T12:08:27;3.20;;;1.60;;
11659;SDS011;5886;58.356;12.744;2022-08-01T12:11:02;3.28;;;1.80;;
11659;SDS011;5886;58.356;12.744;2022-08-01T12:13:39;1.77;;;1.60;;
11659;SDS011;5886;58.356;12.744;2022-08-01T12:16:07;2.15;;;1.70;;
11659;SDS011;5886;58.356;12.744;2022-08-01T12:18:40;2.17;;;1.58;;
11659;SDS011;5886;58.356;12.744;2022-08-01T12:21:07;3.10;;;1.83;;
11659;SDS011;5886;58.356;12.744;2022-08-01T12:23:33;2.08;;;1.48;;
11659;SDS011;5886;58.356;12.744;2022-08-01T12:25:59;3.72;;;1.92;;
11659;SDS011;5886;58.356;12.744;2022-08-01T12:28:25;3.53;;;1.65;;
11659;SDS011;5886;58.356;12.744;2022-08-01T12:30:51;4.32;;;2.03;;
11659;SDS011;5886;58.356;12.744;2022-08-01T12:33:18;6.70;;;2.17;;
11659;SDS011;5886;58.356;12.744;2022-08-01T12:35:45;3.58;;;1.98;;
11659;SDS011;5886;58.356;12.744;2022-08-01T12:38:16;2.78;;;1.73;;
11659;SDS011;5886;58.356;12.744;2022-08-01T12:40:44;5.18;;;2.13;;
11659;SDS011;5886;58.356;12.744;2022-08-01T12:43:15;3.28;;;2.00;;
11659;SDS011;5886;58.356;12.744;2022-08-01T12:45:43;2.95;;;1.77;;
11659;SDS011;5886;58.356;12.744;2022-08-01T12:48:11;4.93;;;2.05;;
11659;SDS011;5886;58.356;12.744;2022-08-01T12:50:39;7.93;;;1.90;;
11659;SDS011;5886;58.356;12.744;2022-08-01T12:53:10;4.28;;;2.13;;
11659;SDS011;5886;58.356;12.744;2022-08-01T12:55:46;4.75;;;1.80;;
11659;SDS011;5886;58.356;12.744;2022-08-01T12:58:16;6.88;;;1.80;;
11659;SDS011;5886;58.356;12.744;2022-08-01T13:00:44;3.55;;;2.08;;
11659;SDS011;5886;58.356;12.744;2022-08-01T13:03:12;5.93;;;1.98;;
11659;SDS011;5886;58.356;12.744;2022-08-01T13:08:19;3.17;;;1.90;;
11659;SDS011;5886;58.356;12.744;2022-08-01T13:10:47;3.53;;;1.90;;
11659;SDS011;5886;58.356;12.744;2022-08-01T13:13:14;4.15;;;2.13;;
11659;SDS011;5886;58.356;12.744;2022-08-01T13:15:42;4.90;;;2.40;;
11659;SDS011;5886;58.356;12.744;2022-08-01T13:18:42;3.67;;;1.70;;
11659;SDS011;5886;58.356;12.744;2022-08-01T13:21:18;3.30;;;1.67;;
11659;SDS011;5886;58.356;12.744;2022-08-01T13:29:19;4.35;;;1.75;;
11659;SDS011;5886;58.356;12.744;2022-08-01T13:31:47;2.45;;;1.50;;
11659;SDS011;5886;58.356;12.744;2022-08-01T13:34:14;3.85;;;1.60;;
11659;SDS011;5886;58.356;12.744;2022-08-01T13:36:40;2.60;;;1.40;;
11659;SDS011;5886;58.356;12.744;2022-08-01T13:39:06;2.03;;;1.27;;
11659;SDS011;5886;58.356;12.744;2022-08-01T13:41:51;3.25;;;1.55;;
11659;SDS011;5886;58.356;12.744;2022-08-01T13:44:17;2.22;;;1.30;;
11659;SDS011;5886;58.356;12.744;2022-08-01T13:46:43;1.60;;;1.50;;
11659;SDS011;5886;58.356;12.744;2022-08-01T13:49:10;4.88;;;1.65;;
11659;SDS011;5886;58.356;12.744;2022-08-01T13:51:36;3.70;;;1.55;;
11659;SDS011;5886;58.356;12.744;2022-08-01T13:54:03;1.73;;;1.50;;
11659;SDS011;5886;58.356;12.744;2022-08-01T13:56:30;1.80;;;1.65;;
11659;SDS011;5886;58.356;12.744;2022-08-01T13:58:57;2.40;;;1.45;;
11659;SDS011;5886;58.356;12.744;2022-08-01T14:01:23;2.50;;;1.60;;
11659;SDS011;5886;58.356;12.744;2022-08-01T14:03:49;4.78;;;1.77;;
11659;SDS011;5886;58.356;12.744;2022-08-01T14:06:18;3.28;;;1.70;;
11659;SDS011;5886;58.356;12.744;2022-08-01T14:19:06;3.85;;;1.35;;
11659;SDS011;5886;58.356;12.744;2022-08-01T14:21:32;1.50;;;1.20;;
11659;SDS011;5886;58.356;12.744;2022-08-01T14:23:57;2.60;;;1.55;;
11659;SDS011;5886;58.356;12.744;2022-08-01T14:26:23;3.72;;;1.70;;
11659;SDS011;5886;58.356;12.744;2022-08-01T14:28:49;1.70;;;1.30;;
11659;SDS011;5886;58.356;12.744;2022-08-01T14:31:15;3.45;;;1.90;;
11659;SDS011;5886;58.356;12.744;2022-08-01T14:33:41;2.28;;;1.50;;
11659;SDS011;5886;58.356;12.744;2022-08-01T14:36:07;2.28;;;1.73;;
11659;SDS011;5886;58.356;12.744;2022-08-01T14:38:33;1.83;;;1.50;;
11659;SDS011;5886;58.356;12.744;2022-08-01T14:40:58;3.20;;;1.92;;
11659;SDS011;5886;58.356;12.744;2022-08-01T14:43:25;4.00;;;1.40;;
11659;SDS011;5886;58.356;12.744;2022-08-01T14:45:51;2.03;;;1.63;;
11659;SDS011;5886;58.356;12.744;2022-08-01T14:48:19;1.63;;;1.40;;
11659;SDS011;5886;58.356;12.744;2022-08-01T14:50:45;3.90;;;1.70;;
11659;SDS011;5886;58.356;12.744;2022-08-01T14:53:11;2.70;;;1.73;;
11659;SDS011;5886;58.356;12.744;2022-08-01T14:55:38;4.40;;;1.88;;
11659;SDS011;5886;58.356;12.744;2022-08-01T14:58:03;8.52;;;1.92;;
11659;SDS011;5886;58.356;12.744;2022-08-01T15:00:29;2.33;;;1.67;;
11659;SDS011;5886;58.356;12.744;2022-08-01T15:02:55;24.50;;;2.47;;
11659;SDS011;5886;58.356;12.744;2022-08-01T15:05:21;8.55;;;2.00;;
11659;SDS011;5886;58.356;12.744;2022-08-01T15:07:47;11.55;;;1.88;;
11659;SDS011;5886;58.356;12.744;2022-08-01T15:10:13;25.73;;;2.72;;
11659;SDS011;5886;58.356;12.744;2022-08-01T15:12:41;6.00;;;1.75;;
11659;SDS011;5886;58.356;12.744;2022-08-01T15:15:08;3.00;;;1.55;;
11659;SDS011;5886;58.356;12.744;2022-08-01T15:17:34;2.45;;;1.50;;
11659;SDS011;5886;58.356;12.744;2022-08-01T15:20:01;8.23;;;1.88;;
11659;SDS011;5886;58.356;12.744;2022-08-01T15:22:30;14.80;;;2.00;;
11659;SDS011;5886;58.356;12.744;2022-08-01T15:24:57;28.67;;;2.55;;
11659;SDS011;5886;58.356;12.744;2022-08-01T15:27:25;1.92;;;1.40;;
11659;SDS011;5886;58.356;12.744;2022-08-01T15:29:52;13.43;;;2.67;;
11659;SDS011;5886;58.356;12.744;2022-08-01T15:32:18;11.80;;;2.65;;
11659;SDS011;5886;58.356;12.744;2022-08-01T15:34:45;11.57;;;1.90;;
11659;SDS011;5886;58.356;12.744;2022-08-01T15:37:12;5.30;;;1.60;;
11659;SDS011;5886;58.356;12.744;2022-08-01T15:39:38;18.73;;;2.70;;
11659;SDS011;5886;58.356;12.744;2022-08-01T15:42:14;4.60;;;1.40;;
11659;SDS011;5886;58.356;12.744;2022-08-01T15:44:42;42.22;;;3.80;;
11659;SDS011;5886;58.356;12.744;2022-08-01T15:47:09;4.00;;;1.50;;
11659;SDS011;5886;58.356;12.744;2022-08-01T15:49:35;3.65;;;1.45;;
11659;SDS011;5886;58.356;12.744;2022-08-01T15:52:03;2.97;;;1.50;;
11659;SDS011;5886;58.356;12.744;2022-08-01T15:54:29;5.90;;;1.55;;
11659;SDS011;5886;58.356;12.744;2022-08-01T15:56:55;1.80;;;1.10;;
11659;SDS011;5886;58.356;12.744;2022-08-01T15:59:21;4.63;;;1.58;;
11659;SDS011;5886;58.356;12.744;2022-08-01T16:01:47;2.00;;;1.30;;
11659;SDS011;5886;58.356;12.744;2022-08-01T16:04:14;2.13;;;1.38;;
11659;SDS011;5886;58.356;12.744;2022-08-01T16:06:41;4.43;;;1.77;;
11659;SDS011;5886;58.356;12.744;2022-08-01T16:09:08;1.50;;;1.40;;
11659;SDS011;5886;58.356;12.744;2022-08-01T16:11:34;2.40;;;1.42;;